Time;durP1;ratioP1;P1;durP2;ratioP2;P2;SDS_P1;SDS_P2;PMS_P1;PMS_P2;Temp;Humidity;BMP_temperature;BMP_pressure;BME280_temperature;BME280_humidity;BME280_pressure;Samples;Min_cycle;Max_cycle;Signal;HPM_P1;HPM_P2
2023/10/16 00:00:40;;;;;;;2.00;0.80;;;8.70;98.80;;;;;;5026947;28;20053;-68
2023/10/16 00:03:07;;;;;;;4.28;0.85;;;8.80;98.80;;;;;;5024735;28;20053;-67
2023/10/16 00:05:45;;;;;;;3.03;0.60;;;8.60;98.90;;;;;;5024836;28;20044;-68
2023/10/16 00:08:16;;;;;;;3.58;0.40;;;8.60;98.90;;;;;;5023271;28;20037;-68
2023/10/16 00:10:55;;;;;;;2.65;0.70;;;8.60;99.00;;;;;;5024865;28;20489;-68
2023/10/16 00:13:26;;;;;;;2.63;0.75;;;8.60;99.10;;;;;;5024526;28;20061;-67
2023/10/16 00:16:02;;;;;;;6.07;0.80;;;8.60;99.10;;;;;;5024595;28;20033;-67
2023/10/16 00:18:33;;;;;;;1.05;0.50;;;8.60;99.20;;;;;;5017325;28;20417;-67
2023/10/16 00:21:04;;;;;;;2.17;0.60;;;8.60;99.20;;;;;;5024427;28;20064;-68
2023/10/16 00:23:30;;;;;;;4.82;0.77;;;8.60;99.30;;;;;;5017125;28;20026;-67
2023/10/16 00:25:58;;;;;;;2.03;0.65;;;8.50;99.30;;;;;;5024321;28;20374;-68
2023/10/16 00:28:24;;;;;;;1.40;0.70;;;8.50;99.40;;;;;;5022536;28;20033;-67
2023/10/16 00:30:51;;;;;;;3.25;0.50;;;8.50;99.40;;;;;;5022973;28;20144;-67
2023/10/16 00:33:17;;;;;;;5.57;0.90;;;8.50;99.50;;;;;;5022555;28;20056;-68
2023/10/16 00:35:53;;;;;;;7.22;1.08;;;8.50;99.50;;;;;;5022581;28;20704;-68
2023/10/16 00:38:19;;;;;;;3.00;0.70;;;8.50;99.60;;;;;;5023119;28;20029;-68
2023/10/16 00:43:34;;;;;;;3.78;0.80;;;8.40;99.60;;;;;;5016595;28;20033;-68
2023/10/16 00:46:06;;;;;;;3.28;0.60;;;8.30;99.70;;;;;;5022912;28;20044;-68
2023/10/16 00:48:39;;;;;;;2.13;0.80;;;8.30;99.90;;;;;;5023369;28;20064;-67
2023/10/16 00:51:10;;;;;;;6.63;0.82;;;8.30;99.90;;;;;;5021415;28;20175;-67
2023/10/16 00:53:38;;;;;;;3.42;0.88;;;8.40;99.90;;;;;;5022905;28;20117;-68
2023/10/16 00:56:09;;;;;;;3.97;0.60;;;8.40;99.90;;;;;;5024064;28;20037;-67
2023/10/16 00:58:35;;;;;;;2.20;0.50;;;8.30;99.90;;;;;;5024062;28;20032;-67
2023/10/16 01:01:12;;;;;;;6.63;0.95;;;8.40;99.90;;;;;;5024574;28;20083;-67
2023/10/16 01:03:40;;;;;;;3.28;0.77;;;8.40;99.90;;;;;;5024318;28;20037;-68
2023/10/16 01:06:17;;;;;;;0.88;0.70;;;8.30;99.90;;;;;;5028355;28;20541;-68
2023/10/16 01:08:49;;;;;;;1.45;0.65;;;8.30;99.90;;;;;;5028226;28;20032;-68
2023/10/16 01:11:19;;;;;;;2.45;0.63;;;8.30;99.90;;;;;;5024342;28;20672;-67
2023/10/16 01:13:47;;;;;;;4.72;0.60;;;8.30;99.90;;;;;;5022968;28;20036;-68
2023/10/16 01:16:16;;;;;;;1.73;0.50;;;8.30;99.90;;;;;;5025389;28;20588;-68
2023/10/16 01:18:43;;;;;;;1.48;0.50;;;8.30;99.90;;;;;;5025954;28;20049;-68
2023/10/16 01:21:09;;;;;;;3.78;0.68;;;8.30;99.90;;;;;;5026356;28;20831;-68
2023/10/16 01:23:34;;;;;;;2.17;0.60;;;8.30;99.90;;;;;;5022548;28;20120;-68
2023/10/16 01:26:01;;;;;;;2.42;0.57;;;8.30;99.90;;;;;;5027925;28;20025;-68
2023/10/16 01:28:28;;;;;;;2.83;0.50;;;8.30;99.90;;;;;;5027720;28;20047;-68
2023/10/16 01:30:53;;;;;;;1.77;0.75;;;8.30;99.90;;;;;;5026181;28;20048;-68
2023/10/16 01:33:20;;;;;;;0.98;0.47;;;8.30;99.90;;;;;;5023052;28;20034;-68
2023/10/16 01:35:52;;;;;;;4.60;0.52;;;8.20;99.90;;;;;;5023003;28;20037;-68
2023/10/16 01:38:18;;;;;;;3.67;0.60;;;8.30;99.90;;;;;;5026397;28;20094;-67
2023/10/16 01:43:37;;;;;;;3.72;0.88;;;8.20;99.90;;;;;;5022229;28;20480;-66
2023/10/16 01:46:08;;;;;;;7.38;0.77;;;8.20;99.90;;;;;;5027116;28;20041;-66
2023/10/16 01:48:40;;;;;;;7.50;0.80;;;8.20;99.90;;;;;;5027551;28;20504;-66
2023/10/16 01:51:19;;;;;;;2.38;0.57;;;8.20;99.90;;;;;;5023114;28;20323;-66
2023/10/16 01:53:50;;;;;;;4.32;0.70;;;8.20;99.90;;;;;;5026014;28;20040;-67
2023/10/16 01:56:27;;;;;;;2.70;0.52;;;8.10;99.90;;;;;;5024869;28;20403;-65
2023/10/16 01:58:54;;;;;;;4.20;0.70;;;8.10;99.90;;;;;;5020972;28;20079;-67
2023/10/16 02:01:21;;;;;;;4.78;0.63;;;8.10;99.90;;;;;;5025677;28;20416;-67
2023/10/16 02:03:49;;;;;;;3.38;0.73;;;8.10;99.90;;;;;;5020148;28;20479;-66
2023/10/16 02:06:16;;;;;;;1.58;0.60;;;8.10;99.90;;;;;;5027216;28;20481;-65
2023/10/16 02:08:45;;;;;;;4.03;1.00;;;8.10;99.90;;;;;;5025790;28;20048;-66
2023/10/16 02:11:12;;;;;;;1.02;0.63;;;8.00;99.90;;;;;;5027281;28;20044;-66
2023/10/16 02:13:42;;;;;;;2.10;0.70;;;8.00;99.90;;;;;;5026925;28;20551;-65
2023/10/16 02:16:10;;;;;;;5.07;0.95;;;8.00;99.90;;;;;;5024106;28;20074;-66
2023/10/16 02:18:40;;;;;;;1.08;0.60;;;8.00;99.90;;;;;;5024518;28;20026;-67
2023/10/16 02:21:11;;;;;;;5.10;0.82;;;8.00;99.90;;;;;;5022454;28;20485;-65
2023/10/16 02:23:38;;;;;;;0.70;0.50;;;8.00;99.90;;;;;;5025299;28;20025;-67
2023/10/16 02:26:08;;;;;;;6.18;0.75;;;8.00;99.90;;;;;;5015727;28;20044;-66
2023/10/16 02:28:34;;;;;;;2.80;0.77;;;8.00;99.90;;;;;;5025272;28;20056;-66
2023/10/16 02:31:16;;;;;;;0.77;0.43;;;8.00;99.90;;;;;;5025897;28;20025;-66
2023/10/16 02:33:50;;;;;;;5.80;0.47;;;8.00;99.90;;;;;;5024469;28;20383;-67
2023/10/16 02:36:19;;;;;;;2.65;0.73;;;8.00;99.90;;;;;;5026417;28;20029;-66
2023/10/16 02:38:47;;;;;;;2.35;0.70;;;8.00;99.90;;;;;;5026504;28;20507;-66
2023/10/16 02:41:19;;;;;;;2.47;0.88;;;8.00;99.90;;;;;;5025739;28;20029;-66
2023/10/16 02:43:48;;;;;;;3.45;0.57;;;7.90;99.90;;;;;;5025385;28;20701;-66
2023/10/16 02:46:18;;;;;;;2.38;0.50;;;7.90;99.90;;;;;;5025981;28;20421;-66
2023/10/16 02:48:44;;;;;;;2.00;1.00;;;7.90;99.90;;;;;;5024200;28;20037;-66
2023/10/16 02:51:10;;;;;;;1.55;0.60;;;7.90;99.90;;;;;;5022603;28;20064;-68
2023/10/16 02:53:41;;;;;;;3.00;0.60;;;7.90;99.90;;;;;;5026114;28;20056;-66
2023/10/16 02:58:57;;;;;;;5.15;0.65;;;7.90;99.90;;;;;;5024821;28;20038;-66
2023/10/16 03:01:23;;;;;;;5.15;0.85;;;7.80;99.90;;;;;;5025742;28;20404;-69
2023/10/16 03:03:50;;;;;;;4.40;0.75;;;7.90;99.90;;;;;;5025967;28;20026;-66
2023/10/16 03:06:19;;;;;;;2.10;0.90;;;7.80;99.90;;;;;;5025934;28;20048;-67
2023/10/16 03:08:51;;;;;;;1.05;0.50;;;7.80;99.90;;;;;;5020276;28;20763;-67
2023/10/16 03:11:18;;;;;;;1.65;0.68;;;7.70;99.90;;;;;;5020289;28;20120;-66
2023/10/16 03:13:47;;;;;;;3.13;0.52;;;7.70;99.90;;;;;;5025789;28;20033;-66
2023/10/16 03:16:23;;;;;;;3.95;0.93;;;7.70;99.90;;;;;;5025703;28;20044;-66
2023/10/16 03:18:50;;;;;;;1.60;0.50;;;7.70;99.90;;;;;;5022213;28;20026;-65
2023/10/16 03:23:46;;;;;;;3.92;0.75;;;7.80;99.90;;;;;;5024751;28;20035;-65
2023/10/16 03:26:25;;;;;;;3.72;1.05;;;7.80;99.90;;;;;;5023132;28;20677;-66
2023/10/16 03:29:13;;;;;;;4.00;0.77;;;7.70;99.90;;;;;;5026135;28;20064;-66
2023/10/16 03:31:39;;;;;;;1.85;0.73;;;7.70;99.90;;;;;;5013312;28;20025;-65
2023/10/16 03:34:11;;;;;;;4.70;0.63;;;7.70;99.90;;;;;;5022138;28;20494;-65
2023/10/16 03:36:37;;;;;;;4.40;0.95;;;7.70;99.90;;;;;;5024923;28;20041;-67
2023/10/16 03:39:03;;;;;;;0.77;0.60;;;7.70;99.90;;;;;;5019414;28;20037;-69
2023/10/16 03:41:32;;;;;;;4.63;0.80;;;7.70;99.90;;;;;;5019906;28;20036;-66
2023/10/16 03:44:05;;;;;;;5.18;0.65;;;7.70;99.90;;;;;;5021958;28;20112;-66
2023/10/16 03:46:31;;;;;;;5.18;1.67;;;7.70;99.90;;;;;;5017347;28;20644;-69
2023/10/16 03:48:57;;;;;;;2.38;0.50;;;7.70;99.90;;;;;;5025566;28;20240;-66
2023/10/16 03:51:24;;;;;;;4.25;0.70;;;7.70;99.90;;;;;;5025247;28;20115;-67
2023/10/16 03:53:53;;;;;;;1.83;0.68;;;7.70;99.90;;;;;;5025153;28;20114;-67
2023/10/16 03:56:22;;;;;;;1.70;0.52;;;7.70;99.90;;;;;;5024821;28;20041;-67
2023/10/16 03:58:48;;;;;;;3.78;0.85;;;7.70;99.90;;;;;;5025446;28;20025;-68
2023/10/16 04:01:23;;;;;;;1.23;0.57;;;7.70;99.90;;;;;;5019531;28;20029;-69
2023/10/16 04:03:51;;;;;;;1.02;0.57;;;7.70;99.90;;;;;;5023074;28;20087;-67
2023/10/16 04:06:21;;;;;;;3.33;0.77;;;7.80;99.90;;;;;;5016830;28;20049;-68
2023/10/16 04:08:47;;;;;;;3.58;0.82;;;7.80;99.90;;;;;;5024811;28;20106;-68
2023/10/16 04:11:14;;;;;;;4.93;0.70;;;7.70;99.90;;;;;;5021637;28;20077;-68
2023/10/16 04:13:47;;;;;;;0.75;0.50;;;7.70;99.90;;;;;;5023979;28;20042;-68
2023/10/16 04:21:45;;;;;;;4.15;0.90;;;7.70;99.90;;;;;;5017746;28;20053;-67
2023/10/16 04:35:28;;;;;;;4.63;1.13;;;7.80;99.90;;;;;;5018541;28;20041;-68
2023/10/16 04:37:55;;;;;;;3.95;0.70;;;7.80;99.90;;;;;;5018371;28;20086;-67
2023/10/16 04:43:13;;;;;;;3.92;0.90;;;7.80;99.90;;;;;;5019126;28;20496;-68
2023/10/16 04:45:39;;;;;;;2.67;0.90;;;7.80;99.90;;;;;;5020086;28;20069;-67
2023/10/16 05:11:33;;;;;;;6.55;1.15;;;7.70;99.90;;;;;;5021024;28;20029;-68
2023/10/16 06:14:22;;;;;;;4.43;1.10;;;7.70;99.90;;;;;;5020779;28;20045;-67
2023/10/16 06:16:53;;;;;;;5.63;1.10;;;7.70;99.90;;;;;;5024319;28;20401;-67
2023/10/16 06:19:22;;;;;;;2.63;0.90;;;7.70;99.90;;;;;;5019672;28;20163;-68
2023/10/16 06:21:52;;;;;;;2.28;1.02;;;7.70;99.90;;;;;;5021663;28;20128;-68
2023/10/16 06:24:28;;;;;;;4.57;0.98;;;7.70;99.90;;;;;;5021208;28;20060;-68
2023/10/16 06:26:57;;;;;;;4.50;1.23;;;7.80;99.90;;;;;;5024224;28;20654;-68
2023/10/16 06:29:24;;;;;;;5.38;1.55;;;7.80;99.90;;;;;;5018760;28;20041;-67
2023/10/16 06:31:58;;;;;;;2.80;0.95;;;7.80;99.90;;;;;;5021862;28;20033;-67
2023/10/16 06:34:24;;;;;;;1.45;0.90;;;7.80;99.90;;;;;;5026021;28;20056;-68
2023/10/16 06:36:55;;;;;;;3.00;1.20;;;7.90;99.90;;;;;;5024013;28;20033;-68
2023/10/16 06:39:28;;;;;;;5.28;1.95;;;7.90;99.90;;;;;;5026472;28;20057;-66
2023/10/16 06:41:55;;;;;;;6.22;1.27;;;7.90;99.90;;;;;;5019701;28;20163;-68
2023/10/16 06:44:28;;;;;;;5.60;1.30;;;8.00;99.90;;;;;;5025229;28;20030;-67
2023/10/16 06:47:00;;;;;;;6.60;1.30;;;8.00;99.90;;;;;;5024618;28;20041;-68
2023/10/16 06:49:36;;;;;;;3.95;1.70;;;8.10;99.90;;;;;;5000789;28;20179;-66
2023/10/16 06:52:06;;;;;;;3.85;1.33;;;8.20;99.90;;;;;;5026190;28;20152;-67
2023/10/16 06:54:37;;;;;;;6.50;1.05;;;8.10;99.90;;;;;;5013858;28;20057;-68
2023/10/16 06:57:12;;;;;;;3.60;1.08;;;8.20;99.90;;;;;;5015847;28;20163;-69
2023/10/16 06:59:39;;;;;;;8.32;2.15;;;8.30;99.90;;;;;;5014560;28;20064;-69
2023/10/16 07:02:05;;;;;;;2.47;1.27;;;8.30;99.90;;;;;;5025209;28;20033;-68
2023/10/16 07:04:31;;;;;;;10.00;2.00;;;8.40;99.90;;;;;;5025479;28;20048;-68
2023/10/16 07:06:58;;;;;;;5.07;1.00;;;8.40;99.90;;;;;;5023865;28;20037;-68
2023/10/16 07:10:13;;;;;;;7.00;1.10;;;8.50;99.90;;;;;;5022368;28;20509;-68
2023/10/16 07:12:19;;;;;;;5.88;1.40;;;8.50;99.90;;;;;;5021183;28;20045;-69
2023/10/16 07:15:05;;;;;;;4.18;1.20;;;8.50;99.90;;;;;;5017960;28;20036;-66
2023/10/16 07:17:31;;;;;;;3.20;1.00;;;8.50;99.90;;;;;;5021486;28;20034;-66
2023/10/16 07:19:59;;;;;;;8.02;3.42;;;8.50;99.90;;;;;;5021495;28;20036;-68
2023/10/16 07:22:32;;;;;;;12.27;5.43;;;8.50;99.90;;;;;;5024361;28;20103;-68
2023/10/16 07:25:22;;;;;;;8.02;2.28;;;8.50;99.90;;;;;;5025576;28;20111;-68
2023/10/16 07:27:47;;;;;;;9.10;2.20;;;8.50;99.90;;;;;;5011751;28;20730;-67
2023/10/16 07:30:22;;;;;;;4.63;2.00;;;8.60;99.90;;;;;;5023170;28;20421;-66
2023/10/16 07:32:52;;;;;;;7.70;3.55;;;8.60;99.90;;;;;;5018311;28;20037;-68
2023/10/16 07:35:21;;;;;;;7.75;1.83;;;8.80;99.90;;;;;;5020183;28;20061;-67
2023/10/16 07:37:48;;;;;;;7.07;2.00;;;8.90;99.90;;;;;;5025566;28;20057;-69
2023/10/16 07:40:20;;;;;;;8.48;3.00;;;9.10;99.90;;;;;;5024468;28;20034;-67
2023/10/16 07:42:50;;;;;;;14.18;4.32;;;9.10;99.90;;;;;;5025028;28;20079;-68
2023/10/16 07:45:15;;;;;;;46.30;17.02;;;9.20;99.90;;;;;;5024598;28;20069;-68
2023/10/16 07:47:46;;;;;;;159.15;60.45;;;9.30;99.90;;;;;;5022535;28;20061;-68
2023/10/16 07:50:12;;;;;;;47.55;20.15;;;9.50;99.90;;;;;;5024492;28;20848;-68
2023/10/16 07:52:41;;;;;;;17.23;8.25;;;9.60;99.90;;;;;;5024736;28;20029;-67
2023/10/16 07:55:09;;;;;;;20.17;9.32;;;9.70;99.90;;;;;;5020441;28;20022;-68
2023/10/16 07:57:35;;;;;;;36.08;15.52;;;9.80;99.90;;;;;;5025409;28;20025;-68
2023/10/16 08:00:13;;;;;;;15.55;6.78;;;9.90;99.90;;;;;;5025186;28;20079;-68
2023/10/16 08:02:44;;;;;;;20.23;9.05;;;9.90;99.90;;;;;;5019285;28;20120;-68
2023/10/16 08:05:15;;;;;;;28.33;9.02;;;10.00;99.90;;;;;;5019334;28;20671;-68
2023/10/16 08:07:46;;;;;;;16.45;7.10;;;10.00;99.90;;;;;;5023300;28;20036;-68
2023/10/16 08:12:57;;;;;;;40.67;15.68;;;10.10;99.90;;;;;;5023976;28;20038;-67
2023/10/16 08:15:23;;;;;;;67.97;26.83;;;10.20;99.90;;;;;;5021380;28;20060;-67
2023/10/16 08:17:48;;;;;;;78.93;29.85;;;10.30;99.90;;;;;;5023118;28;20060;-67
2023/10/16 08:20:17;;;;;;;56.97;20.30;;;10.30;99.90;;;;;;5024820;28;20117;-68
2023/10/16 08:22:47;;;;;;;34.92;12.43;;;10.30;99.90;;;;;;5024674;28;20033;-67
2023/10/16 08:25:32;;;;;;;22.90;8.80;;;10.40;99.90;;;;;;5024139;28;20037;-68
2023/10/16 08:28:02;;;;;;;18.27;6.40;;;10.50;99.90;;;;;;5024743;28;20044;-68
2023/10/16 08:30:48;;;;;;;48.70;14.05;;;10.70;99.90;;;;;;5024570;28;20524;-68
2023/10/16 08:33:18;;;;;;;44.78;17.88;;;10.80;99.90;;;;;;5022224;28;20045;-68
2023/10/16 08:35:45;;;;;;;38.97;15.90;;;11.00;99.50;;;;;;5023906;28;20029;-68
2023/10/16 08:38:14;;;;;;;5.97;2.28;;;11.10;99.30;;;;;;5024471;28;20033;-68
2023/10/16 08:40:44;;;;;;;3.33;1.73;;;11.20;98.70;;;;;;5024400;28;20025;-68
2023/10/16 08:43:17;;;;;;;5.65;1.60;;;11.30;99.00;;;;;;5024619;28;20091;-67
2023/10/16 08:45:49;;;;;;;6.20;1.90;;;11.30;98.60;;;;;;5024263;28;20029;-68
2023/10/16 08:48:17;;;;;;;3.88;2.00;;;11.40;98.90;;;;;;5024496;28;20041;-68
2023/10/16 08:50:52;;;;;;;6.35;2.40;;;11.50;98.70;;;;;;5024324;28;20358;-68
2023/10/16 08:53:31;;;;;;;6.90;2.08;;;11.70;98.60;;;;;;5023655;28;20152;-68
2023/10/16 08:56:07;;;;;;;7.40;1.88;;;11.70;97.70;;;;;;5023488;28;20025;-68
2023/10/16 08:58:36;;;;;;;4.88;1.58;;;11.70;98.20;;;;;;5016895;28;20045;-68
2023/10/16 09:01:07;;;;;;;11.18;4.75;;;11.80;97.90;;;;;;5014452;28;20483;-68
2023/10/16 09:03:44;;;;;;;9.60;4.13;;;12.00;98.10;;;;;;5015582;28;20075;-68
2023/10/16 09:06:13;;;;;;;9.65;3.72;;;12.30;97.20;;;;;;5023739;28;20041;-67
2023/10/16 09:08:41;;;;;;;13.52;3.53;;;12.40;97.10;;;;;;5023896;28;20060;-68
2023/10/16 09:11:08;;;;;;;3.60;2.17;;;12.70;96.90;;;;;;5015061;28;20057;-68
2023/10/16 09:13:35;;;;;;;7.20;1.63;;;12.90;96.50;;;;;;5023822;28;20140;-68
2023/10/16 09:16:03;;;;;;;7.90;2.20;;;13.00;95.80;;;;;;5023934;28;20029;-68
2023/10/16 09:18:31;;;;;;;9.20;2.42;;;13.10;95.50;;;;;;5023756;28;20033;-68
2023/10/16 09:21:00;;;;;;;18.63;6.82;;;13.10;94.60;;;;;;5022039;28;20037;-67
2023/10/16 09:23:36;;;;;;;11.93;4.80;;;13.10;94.70;;;;;;5023334;28;20029;-68
2023/10/16 09:26:04;;;;;;;26.60;9.73;;;13.10;95.30;;;;;;5027686;28;20055;-68
2023/10/16 09:28:32;;;;;;;9.05;2.65;;;13.10;95.20;;;;;;5020140;28;20679;-67
2023/10/16 09:31:01;;;;;;;5.10;2.17;;;13.20;95.60;;;;;;5024257;28;20220;-68
2023/10/16 09:33:27;;;;;;;6.03;2.05;;;13.30;95.00;;;;;;5025703;28;20065;-68
2023/10/16 09:36:00;;;;;;;6.13;1.90;;;13.20;94.60;;;;;;5024515;28;20068;-68
2023/10/16 09:38:32;;;;;;;10.13;4.50;;;13.20;95.00;;;;;;5027779;28;20032;-68
2023/10/16 09:43:56;;;;;;;10.43;4.32;;;13.30;94.40;;;;;;5022056;28;20053;-65
2023/10/16 09:49:15;;;;;;;4.60;1.88;;;13.20;94.60;;;;;;5027603;28;20152;-67
2023/10/16 09:51:45;;;;;;;13.18;3.63;;;13.20;94.30;;;;;;5020777;28;20044;-66
2023/10/16 09:54:14;;;;;;;33.28;7.82;;;13.10;94.80;;;;;;5026783;28;20038;-68
2023/10/16 09:56:48;;;;;;;25.80;5.85;;;13.10;94.90;;;;;;5026989;28;20135;-67
2023/10/16 09:59:54;;;;;;;5.80;1.73;;;13.10;95.00;;;;;;5026887;28;20041;-67
2023/10/16 10:02:25;;;;;;;10.35;2.88;;;13.20;95.00;;;;;;5023572;28;20045;-67
2023/10/16 10:05:03;;;;;;;6.40;2.80;;;13.40;95.00;;;;;;5023816;28;20140;-67
2023/10/16 10:07:36;;;;;;;9.13;3.42;;;13.70;94.60;;;;;;5022682;28;20116;-68
2023/10/16 10:12:52;;;;;;;10.90;4.72;;;14.40;92.70;;;;;;5021487;28;20070;-68
2023/10/16 10:15:30;;;;;;;10.13;4.50;;;14.40;92.70;;;;;;5025415;28;20045;-68
2023/10/16 10:18:01;;;;;;;25.65;12.82;;;14.40;92.60;;;;;;5027026;28;20888;-68
2023/10/16 10:20:32;;;;;;;12.30;5.78;;;14.50;92.20;;;;;;5027263;28;20033;-67
2023/10/16 10:23:08;;;;;;;23.60;10.00;;;14.50;92.40;;;;;;5026052;28;20132;-67
2023/10/16 10:25:36;;;;;;;19.42;9.55;;;14.40;92.30;;;;;;5019372;28;20029;-68
2023/10/16 10:28:22;;;;;;;14.00;6.18;;;14.40;92.00;;;;;;5026632;28;20398;-67
2023/10/16 10:30:49;;;;;;;6.25;3.22;;;14.50;92.50;;;;;;5020596;28;20080;-66
2023/10/16 10:33:37;;;;;;;1.50;0.80;;;14.80;90.90;;;;;;5026363;28;20045;-67
2023/10/16 10:36:34;;;;;;;1.83;0.65;;;16.00;90.10;;;;;;5021665;28;20037;-66
2023/10/16 10:39:20;;;;;;;1.60;0.60;;;17.40;84.50;;;;;;5022341;28;20033;-68
2023/10/16 10:41:51;;;;;;;1.15;0.60;;;17.20;82.80;;;;;;5020810;28;20128;-68
2023/10/16 10:44:21;;;;;;;3.30;0.80;;;16.60;84.70;;;;;;5026174;28;20862;-67
2023/10/16 10:46:49;;;;;;;3.90;0.77;;;15.90;86.00;;;;;;5025734;28;20037;-67
2023/10/16 10:49:16;;;;;;;1.75;0.70;;;16.40;86.60;;;;;;5026404;28;20153;-65
2023/10/16 10:51:50;;;;;;;2.83;1.08;;;17.80;83.00;;;;;;5026335;28;20041;-67
2023/10/16 10:54:23;;;;;;;2.88;1.20;;;17.80;80.50;;;;;;5026221;28;20692;-68
2023/10/16 10:56:49;;;;;;;5.45;2.05;;;17.10;81.20;;;;;;5026222;28;20044;-67
2023/10/16 10:59:40;;;;;;;14.75;5.07;;;16.40;84.40;;;;;;5025312;28;20128;-67
2023/10/16 11:04:44;;;;;;;10.13;3.50;;;15.70;88.30;;;;;;5025230;28;20029;-67
2023/10/16 11:07:25;;;;;;;4.80;1.40;;;15.60;88.80;;;;;;5025781;28;20633;-67
2023/10/16 11:09:56;;;;;;;3.70;0.63;;;15.50;88.70;;;;;;5022840;28;20413;-67
2023/10/16 11:12:26;;;;;;;2.33;0.75;;;15.40;87.90;;;;;;5011468;28;20034;-67
2023/10/16 11:14:54;;;;;;;1.73;0.80;;;15.20;89.10;;;;;;5019905;28;20029;-67
2023/10/16 11:17:37;;;;;;;3.08;0.80;;;15.20;88.50;;;;;;5025779;28;20034;-66
2023/10/16 11:22:45;;;;;;;3.25;0.47;;;15.10;89.60;;;;;;5018574;28;20029;-67
2023/10/16 11:25:13;;;;;;;3.92;0.88;;;15.20;90.30;;;;;;5025469;28;20025;-67
2023/10/16 11:27:43;;;;;;;8.38;1.35;;;15.40;89.40;;;;;;5025048;28;20041;-67
2023/10/16 11:30:13;;;;;;;3.90;1.40;;;15.40;89.40;;;;;;5017689;28;20418;-67
2023/10/16 11:32:46;;;;;;;2.25;0.63;;;15.30;89.30;;;;;;5018424;28;20028;-67
2023/10/16 11:35:15;;;;;;;2.63;0.73;;;15.30;89.70;;;;;;5025045;28;20033;-67
2023/10/16 11:37:55;;;;;;;5.10;1.00;;;15.60;90.50;;;;;;5025232;28;20033;-67
2023/10/16 11:40:42;;;;;;;3.78;0.85;;;15.70;89.10;;;;;;5025344;28;20033;-67
2023/10/16 11:43:11;;;;;;;3.92;1.65;;;15.80;87.10;;;;;;5023939;28;20662;-67
2023/10/16 11:45:42;;;;;;;4.32;2.15;;;15.80;87.70;;;;;;5025049;28;20501;-67
2023/10/16 11:50:51;;;;;;;3.45;0.80;;;15.60;86.10;;;;;;5025093;28;20713;-67
2023/10/16 11:53:25;;;;;;;3.30;0.80;;;15.40;86.80;;;;;;5024598;28;20045;-66
2023/10/16 11:55:51;;;;;;;1.10;0.75;;;15.20;87.80;;;;;;5024752;28;20030;-67
2023/10/16 11:58:17;;;;;;;4.50;0.57;;;15.00;88.20;;;;;;5024909;28;20103;-67
2023/10/16 12:00:54;;;;;;;0.90;0.57;;;14.90;88.80;;;;;;5024321;28;20107;-67
2023/10/16 12:03:26;;;;;;;0.55;0.50;;;14.70;89.50;;;;;;5024393;28;20124;-67
2023/10/16 12:05:52;;;;;;;1.73;0.68;;;14.50;89.70;;;;;;5024473;28;20033;-67
2023/10/16 12:08:21;;;;;;;2.13;0.50;;;14.40;90.30;;;;;;5024139;28;20045;-66
2023/10/16 12:10:48;;;;;;;1.50;0.60;;;14.30;90.40;;;;;;5024533;28;20056;-67
2023/10/16 12:13:14;;;;;;;2.35;0.70;;;14.30;90.60;;;;;;5024744;28;20064;-67
2023/10/16 12:15:43;;;;;;;1.85;0.85;;;14.20;90.60;;;;;;5024521;28;20758;-67
2023/10/16 12:18:12;;;;;;;2.17;0.60;;;14.10;90.70;;;;;;5024333;28;20127;-67
2023/10/16 12:20:39;;;;;;;1.95;0.43;;;14.10;90.70;;;;;;5024769;28;20137;-67
2023/10/16 12:23:05;;;;;;;1.70;0.63;;;14.00;90.40;;;;;;5024788;28;20025;-67
2023/10/16 12:25:33;;;;;;;1.80;0.60;;;14.10;90.60;;;;;;5024717;28;20071;-67
2023/10/16 12:27:59;;;;;;;2.00;1.05;;;14.10;90.10;;;;;;5025108;28;20068;-67
2023/10/16 12:30:27;;;;;;;6.65;6.05;;;14.10;90.60;;;;;;5024915;28;20452;-67
2023/10/16 12:32:55;;;;;;;10.77;5.40;;;14.20;90.50;;;;;;5024243;28;20040;-66
2023/10/16 12:35:22;;;;;;;17.85;15.05;;;14.30;90.50;;;;;;5024487;28;20038;-67
2023/10/16 12:37:55;;;;;;;12.63;8.98;;;14.50;90.70;;;;;;5024862;28;20429;-69
2023/10/16 12:40:26;;;;;;;7.20;3.67;;;14.60;90.80;;;;;;5023028;28;20033;-67
2023/10/16 12:42:58;;;;;;;3.92;2.28;;;14.80;90.70;;;;;;5021009;28;20397;-67
2023/10/16 12:45:24;;;;;;;5.82;0.93;;;14.90;90.30;;;;;;5024603;28;20041;-67
2023/10/16 12:47:51;;;;;;;3.58;2.10;;;15.00;89.70;;;;;;5023457;28;20034;-67
2023/10/16 12:50:23;;;;;;;6.80;3.13;;;15.10;88.60;;;;;;5023661;28;20048;-67
2023/10/16 12:52:51;;;;;;;6.88;3.00;;;15.20;88.10;;;;;;5020545;28;20033;-67
2023/10/16 12:55:19;;;;;;;6.18;3.38;;;15.20;89.00;;;;;;5024079;28;20060;-67
2023/10/16 12:57:45;;;;;;;3.55;2.80;;;15.30;87.70;;;;;;5021290;28;20029;-67
2023/10/16 13:00:18;;;;;;;0.98;0.52;;;15.30;86.60;;;;;;5022520;28;20122;-67
2023/10/16 13:02:48;;;;;;;1.23;0.80;;;15.30;84.00;;;;;;5021831;28;20029;-67
2023/10/16 13:05:18;;;;;;;4.95;1.00;;;15.00;84.90;;;;;;5028733;28;20033;-67
2023/10/16 13:07:47;;;;;;;0.60;0.57;;;14.90;86.20;;;;;;5021663;28;20030;-68
2023/10/16 13:10:20;;;;;;;2.70;0.82;;;15.00;85.40;;;;;;5028642;28;20037;-67
2023/10/16 13:12:46;;;;;;;1.70;1.00;;;14.90;85.30;;;;;;5021344;28;20159;-68
2023/10/16 13:15:24;;;;;;;1.65;1.35;;;14.90;86.20;;;;;;5027916;28;20041;-67
2023/10/16 13:17:51;;;;;;;1.42;0.90;;;14.90;85.80;;;;;;5022215;28;20071;-68
2023/10/16 13:20:17;;;;;;;2.70;0.85;;;14.90;87.20;;;;;;5028032;28;20489;-67
2023/10/16 13:22:44;;;;;;;3.53;0.82;;;14.90;87.20;;;;;;5028236;28;20055;-67
2023/10/16 13:25:13;;;;;;;1.48;0.68;;;14.80;87.40;;;;;;5027621;28;20580;-67
2023/10/16 13:27:39;;;;;;;0.80;0.38;;;14.70;88.40;;;;;;5027708;28;20729;-67
2023/10/16 13:30:11;;;;;;;0.63;0.40;;;14.60;87.40;;;;;;5027766;28;20041;-67
2023/10/16 13:32:41;;;;;;;0.43;0.22;;;14.50;85.40;;;;;;5026864;28;20064;-67
2023/10/16 13:35:12;;;;;;;0.95;0.52;;;14.40;86.40;;;;;;5024265;28;20378;-67
2023/10/16 13:37:42;;;;;;;1.23;0.40;;;14.40;87.00;;;;;;5019896;28;20029;-67
2023/10/16 13:40:22;;;;;;;3.60;0.50;;;14.40;86.80;;;;;;5019915;28;20658;-68
2023/10/16 13:42:52;;;;;;;3.42;1.00;;;14.40;85.60;;;;;;5027458;28;20025;-67
2023/10/16 13:45:18;;;;;;;2.58;0.70;;;14.30;87.20;;;;;;5027781;28;20037;-67
2023/10/16 13:47:45;;;;;;;1.00;0.60;;;14.30;86.50;;;;;;5028288;28;20088;-66
2023/10/16 13:50:16;;;;;;;1.02;0.50;;;14.30;86.70;;;;;;5026814;28;20037;-67
2023/10/16 13:52:46;;;;;;;1.27;0.73;;;14.30;86.50;;;;;;5027589;28;20057;-67
2023/10/16 13:55:12;;;;;;;1.10;0.52;;;14.30;86.40;;;;;;5026321;28;20029;-65
2023/10/16 13:57:42;;;;;;;1.05;0.43;;;14.20;86.80;;;;;;5027313;28;20037;-67
2023/10/16 14:03:10;;;;;;;3.75;1.58;;;14.20;87.50;;;;;;5024670;28;20029;-66
2023/10/16 14:05:44;;;;;;;2.85;2.00;;;14.10;87.20;;;;;;5013637;28;20038;-67
2023/10/16 14:08:10;;;;;;;3.42;1.08;;;14.10;88.70;;;;;;5016441;28;20454;-67
2023/10/16 14:10:39;;;;;;;2.08;1.60;;;14.10;88.00;;;;;;5024492;28;20295;-66
2023/10/16 14:13:11;;;;;;;2.95;1.80;;;14.20;88.50;;;;;;5026249;28;20045;-66
2023/10/16 14:15:41;;;;;;;2.53;0.90;;;14.20;89.00;;;;;;5019780;28;20029;-67
2023/10/16 14:18:14;;;;;;;1.05;0.70;;;14.20;89.10;;;;;;5026938;28;20148;-67
2023/10/16 14:20:45;;;;;;;1.70;1.30;;;14.20;88.20;;;;;;5019623;28;20057;-66
2023/10/16 14:23:13;;;;;;;1.70;0.60;;;14.10;88.50;;;;;;5026976;28;20026;-67
2023/10/16 14:31:03;;;;;;;2.13;0.70;;;14.20;89.00;;;;;;5026837;28;20047;-68
2023/10/16 14:33:31;;;;;;;1.45;1.08;;;14.20;89.20;;;;;;5027369;28;20409;-68
2023/10/16 14:35:58;;;;;;;0.93;0.47;;;14.30;89.20;;;;;;5026272;28;20064;-68
2023/10/16 14:38:25;;;;;;;1.30;0.30;;;14.30;88.60;;;;;;5022730;28;20052;-68
2023/10/16 14:40:55;;;;;;;0.82;0.55;;;14.30;89.00;;;;;;5026801;28;20033;-67
2023/10/16 14:43:24;;;;;;;1.65;0.88;;;14.30;89.10;;;;;;5024826;28;20037;-69
2023/10/16 14:45:53;;;;;;;1.98;0.98;;;14.20;89.10;;;;;;5026732;28;20029;-68
2023/10/16 14:48:22;;;;;;;1.27;1.00;;;14.20;88.40;;;;;;5023815;28;20067;-67
2023/10/16 14:50:50;;;;;;;2.50;1.27;;;14.10;88.60;;;;;;5025888;28;20037;-66
2023/10/16 14:53:19;;;;;;;1.45;0.65;;;14.10;88.50;;;;;;5019772;28;20568;-66
2023/10/16 14:55:49;;;;;;;6.70;1.23;;;14.10;86.50;;;;;;5022419;28;20148;-66
2023/10/16 14:58:15;;;;;;;2.95;0.93;;;14.00;86.70;;;;;;5022792;28;20166;-67
2023/10/16 15:00:42;;;;;;;1.52;0.77;;;14.00;86.70;;;;;;5026297;28;20025;-66
2023/10/16 15:03:11;;;;;;;1.20;0.70;;;13.90;87.20;;;;;;5022446;28;20763;-66
2023/10/16 15:05:41;;;;;;;1.38;0.55;;;13.80;86.80;;;;;;5026356;28;20021;-66
2023/10/16 15:08:11;;;;;;;0.35;0.35;;;13.70;87.20;;;;;;5026321;28;20405;-66
2023/10/16 15:10:44;;;;;;;1.15;0.90;;;13.70;87.30;;;;;;5022515;28;20692;-66
2023/10/16 15:13:15;;;;;;;2.60;0.82;;;13.70;88.00;;;;;;5025765;28;20493;-66
2023/10/16 15:15:42;;;;;;;0.55;0.55;;;13.70;87.90;;;;;;5022566;28;20068;-66
2023/10/16 15:18:11;;;;;;;1.15;0.40;;;13.60;88.90;;;;;;5020205;28;20565;-66
2023/10/16 15:20:41;;;;;;;2.03;0.52;;;13.60;90.00;;;;;;5026081;28;20045;-67
2023/10/16 15:23:12;;;;;;;0.68;0.32;;;13.50;90.30;;;;;;5022476;28;20029;-66
2023/10/16 15:25:38;;;;;;;6.65;0.88;;;13.50;90.30;;;;;;5018525;28;20044;-66
2023/10/16 15:28:13;;;;;;;4.35;0.98;;;13.40;90.50;;;;;;5021993;28;20041;-66